| time (UTC) | temp F | wind direction | speed knots | gust knots | rain 1hr in | rain 24hr in | rain mn in | humidity % | barometer mb |
| 20260503054518 | 36 | 0 | 0.0 | 2.6 | 0.00 | 0.00 | 0.00 | 56 | 1020.5 |
| 20260503052339 | 36 | 0 | 0.0 | 0.0 | 0.00 | 0.00 | 0.00 | 56 | 1020.5 |
| 20260503051314 | 36 | 0 | 0.0 | 0.0 | 0.00 | 0.00 | 0.00 | 56 | 1020.4 |
| 20260503050325 | 36 | 0 | 0.0 | 0.0 | 0.00 | 0.00 | 0.00 | 56 | 1020.5 |
| 20260503045322 | 36 | 0 | 0.0 | 0.0 | 0.00 | 0.00 | 0.00 | 56 | 1020.6 |
| 20260503044257 | 37 | 0 | 0.0 | 0.0 | 0.00 | 0.00 | 0.00 | 56 | 1020.5 |
| 20260503043241 | 37 | 0 | 0.0 | 0.0 | 0.00 | 0.00 | 0.00 | 56 | 1020.4 |
| 20260503042229 | 37 | 0 | 0.0 | 0.0 | 0.00 | 0.00 | 0.00 | 55 | 1020.4 |
| 20260503041155 | 37 | 0 | 0.0 | 0.0 | 0.00 | 0.00 | 0.00 | 55 | 1020.5 |
| 20260503040207 | 38 | 0 | 0.0 | 0.0 | 0.00 | 0.00 | 0.00 | 54 | 1020.6 |
| 20260503035222 | 38 | 0 | 0.0 | 0.0 | 0.00 | 0.00 | 0.00 | 54 | 1020.7 |
| 20260503034236 | 39 | 0 | 0.0 | 0.0 | 0.00 | 0.00 | 0.00 | 53 | 1020.7 |
| 20260503033238 | 39 | 0 | 0.0 | 0.0 | 0.00 | 0.00 | 0.00 | 53 | 1020.7 |
| 20260503031103 | 40 | 0 | 0.0 | 0.0 | 0.00 | 0.00 | 0.00 | 55 | 1020.8 |
| 20260503030113 | 40 | 0 | 0.0 | 0.0 | 0.00 | 0.00 | 0.00 | 53 | 1020.7 |
| 20260503024012 | 40 | 0 | 0.0 | 0.0 | 0.00 | 0.00 | 0.00 | 52 | 1020.8 |
| 20260503022950 | 40 | 0 | 0.0 | 0.0 | 0.00 | 0.00 | 0.00 | 51 | 1020.9 |
| 20260503021929 | 40 | 0 | 0.0 | 0.9 | 0.00 | 0.00 | 0.00 | 51 | 1021.1 |
| 20260503020953 | 40 | 0 | 0.0 | 0.9 | 0.00 | 0.00 | 0.00 | 51 | 1021.0 |
| 20260503020013 | 40 | 0 | 0.0 | 0.9 | 0.00 | 0.00 | 0.00 | 51 | 1021.0 |
| 20260503015021 | 40 | 0 | 0.0 | 0.0 | 0.00 | 0.00 | 0.00 | 49 | 1020.9 |
| 20260503014035 | 40 | 0 | 0.0 | 0.0 | 0.00 | 0.00 | 0.00 | 50 | 1020.7 |
| 20260503013021 | 41 | 0 | 0.0 | 0.0 | 0.00 | 0.00 | 0.00 | 48 | 1020.6 |
| 20260503012040 | 42 | 0 | 0.0 | 0.0 | 0.00 | 0.00 | 0.00 | 46 | 1020.6 |
| 20260503011032 | 43 | 0 | 0.0 | 0.0 | 0.00 | 0.00 | 0.00 | 45 | 1020.6 |
| 20260503010045 | 43 | 0 | 0.0 | 0.0 | 0.00 | 0.00 | 0.00 | 44 | 1020.5 |
| 20260503003916 | 44 | 0 | 0.0 | 0.0 | 0.00 | 0.00 | 0.00 | 43 | 1020.4 |
| 20260503002910 | 45 | 0 | 0.0 | 0.0 | 0.00 | 0.00 | 0.00 | 44 | 1020.5 |
| 20260503001845 | 45 | 0 | 0.0 | 0.9 | 0.00 | 0.00 | 0.00 | 41 | 1020.3 |
| 20260503000824 | 45 | 0 | 0.0 | 6.1 | 0.00 | 0.00 | 0.00 | 41 | 1020.4 |
| 20260502235803 | 45 | 0 | 0.0 | 3.5 | 0.00 | 0.00 | 0.00 | 41 | 1020.3 |
| 20260502234751 | 45 | 0 | 0.0 | 0.0 | 0.00 | 0.00 | 0.00 | 40 | 1020.3 |
| 20260502233731 | 45 | 0 | 1.7 | 7.0 | 0.00 | 0.00 | 0.00 | 38 | 1020.2 |
| 20260502231529 | 46 | 0 | 1.7 | 6.1 | 0.00 | 0.00 | 0.00 | 40 | 1020.2 |
| 20260502230553 | 46 | 0 | 0.0 | 3.5 | 0.00 | 0.00 | 0.00 | 40 | 1020.2 |
| 20260502225539 | 46 | 0 | 0.9 | 7.0 | 0.00 | 0.00 | 0.00 | 38 | 1020.2 |
| 20260502224552 | 46 | 0 | 1.7 | 7.8 | 0.00 | 0.00 | 0.00 | 36 | 1020.2 |
| 20260502223557 | 46 | 0 | 2.6 | 7.8 | 0.00 | 0.00 | 0.00 | 36 | 1020.1 |
| 20260502222545 | 46 | 0 | 1.7 | 7.8 | 0.00 | 0.00 | 0.00 | 37 | 1020.2 |
| 20260502221608 | 46 | 0 | 2.6 | 7.8 | 0.00 | 0.00 | 0.00 | 35 | 1020.2 |
| 20260502220617 | 46 | 0 | 0.9 | 4.3 | 0.00 | 0.00 | 0.00 | 36 | 1020.2 |
| 20260502215547 | 47 | 0 | 1.7 | 7.0 | 0.00 | 0.00 | 0.00 | 36 | 1020.1 |
| 20260502214519 | 47 | 0 | 1.7 | 7.0 | 0.00 | 0.00 | 0.00 | 35 | 1020.0 |
| 20260502213529 | 47 | 0 | 0.9 | 2.6 | 0.00 | 0.00 | 0.00 | 37 | 1019.9 |
| 20260502212544 | 47 | 0 | 2.6 | 7.0 | 0.00 | 0.00 | 0.00 | 35 | 1020.0 |
| 20260502211543 | 47 | 0 | 1.7 | 7.0 | 0.00 | 0.00 | 0.00 | 37 | 1020.0 |
| 20260502210605 | 47 | 0 | 0.9 | 8.7 | 0.00 | 0.00 | 0.00 | 37 | 1019.8 |
| 20260502205557 | 47 | 0 | 2.6 | 8.7 | 0.00 | 0.00 | 0.00 | 35 | 1019.7 |
| 20260502204548 | 47 | 0 | 1.7 | 8.7 | 0.00 | 0.00 | 0.00 | 35 | 1019.8 |
| 20260502203543 | 47 | 0 | 2.6 | 8.7 | 0.00 | 0.00 | 0.00 | 35 | 1019.9 |
| 20260502202520 | 47 | 0 | 1.7 | 7.0 | 0.00 | 0.00 | 0.00 | 35 | 1019.9 |
| 20260502201519 | 47 | 0 | 2.6 | 12.2 | 0.00 | 0.00 | 0.00 | 34 | 1019.9 |
| 20260502200510 | 48 | 0 | 3.5 | 12.2 | 0.00 | 0.00 | 0.00 | 33 | 1020.0 |
| 20260502195518 | 47 | 0 | 1.7 | 8.7 | 0.00 | 0.00 | 0.00 | 35 | 1020.0 |
| 20260502194456 | 47 | 0 | 2.6 | 7.8 | 0.00 | 0.00 | 0.00 | 34 | 1020.2 |
| 20260502193453 | 47 | 0 | 2.6 | 11.3 | 0.00 | 0.00 | 0.00 | 35 | 1020.3 |
| 20260502192507 | 47 | 0 | 1.7 | 11.3 | 0.00 | 0.00 | 0.00 | 36 | 1020.4 |
| 20260502191525 | 48 | 0 | 2.6 | 7.8 | 0.00 | 0.00 | 0.00 | 35 | 1020.3 |
| 20260502190521 | 48 | 0 | 2.6 | 8.7 | 0.00 | 0.00 | 0.00 | 33 | 1020.4 |
| 20260502185538 | 48 | 0 | 1.7 | 10.4 | 0.00 | 0.00 | 0.00 | 33 | 1020.5 |
| 20260502183415 | 47 | 0 | 2.6 | 9.6 | 0.00 | 0.00 | 0.00 | 36 | 1020.3 |
| 20260502181301 | 48 | 0 | 1.7 | 7.0 | 0.00 | 0.00 | 0.00 | 38 | 1020.5 |
| 20260502180255 | 49 | 0 | 1.7 | 7.0 | 0.00 | 0.00 | 0.00 | 36 | 1020.5 |
| 20260502170134 | 47 | 0 | 2.6 | 9.6 | 0.00 | 0.00 | 0.00 | 36 | 1020.8 |
| 20260502164137 | 46 | 0 | 2.6 | 8.7 | 0.00 | 0.00 | 0.00 | 37 | 1020.8 |
| 20260502163146 | 46 | 0 | 3.5 | 13.0 | 0.00 | 0.00 | 0.00 | 35 | 1020.9 |
| 20260502162158 | 47 | 0 | 3.5 | 13.0 | 0.00 | 0.00 | 0.00 | 35 | 1021.1 |
| 20260502151859 | 47 | 0 | 2.6 | 11.3 | 0.00 | 0.00 | 0.00 | 39 | 1020.8 |
| 20260502150857 | 46 | 0 | 2.6 | 11.3 | 0.00 | 0.00 | 0.00 | 42 | 1020.7 |
| 20260502123718 | 40 | 0 | 1.7 | 7.8 | 0.00 | 0.02 | 0.00 | 50 | 1020.4 |
| 20260502122704 | 39 | 0 | 1.7 | 7.8 | 0.00 | 0.02 | 0.00 | 50 | 1020.4 |
| 20260502121710 | 38 | 0 | 1.7 | 6.1 | 0.00 | 0.02 | 0.00 | 51 | 1020.2 |
| 20260502120730 | 37 | 0 | 1.7 | 6.1 | 0.00 | 0.02 | 0.00 | 51 | 1020.1 |
| 20260502115721 | 36 | 0 | 1.7 | 7.0 | 0.00 | 0.02 | 0.00 | 51 | 1019.9 |
| 20260502114712 | 35 | 0 | 1.7 | 7.0 | 0.00 | 0.02 | 0.00 | 52 | 1019.8 |
| 20260502113652 | 34 | 0 | 1.7 | 6.1 | 0.00 | 0.02 | 0.00 | 53 | 1019.8 |
| 20260502112658 | 33 | 0 | 0.0 | 2.6 | 0.00 | 0.02 | 0.00 | 53 | 1019.8 |
| 20260502111640 | 33 | 0 | 0.0 | 2.6 | 0.00 | 0.02 | 0.00 | 53 | 1019.7 |
| 20260502110700 | 33 | 0 | 0.0 | 2.6 | 0.00 | 0.02 | 0.00 | 52 | 1019.7 |
| 20260502105722 | 33 | 0 | 0.0 | 2.6 | 0.00 | 0.02 | 0.00 | 52 | 1019.7 |
| 20260502103637 | 33 | 0 | 0.0 | 1.7 | 0.00 | 0.02 | 0.00 | 53 | 1019.5 |
| 20260502102603 | 33 | 0 | 0.0 | 2.6 | 0.00 | 0.02 | 0.00 | 53 | 1019.5 |
| 20260502101628 | 33 | 0 | 0.0 | 2.6 | 0.00 | 0.02 | 0.00 | 53 | 1019.3 |
| 20260502100602 | 33 | 0 | 0.0 | 3.5 | 0.00 | 0.02 | 0.00 | 53 | 1019.3 |
| 20260502091524 | 34 | 0 | 0.0 | 3.5 | 0.00 | 0.02 | 0.00 | 54 | 1019.5 |
| 20260502090451 | 34 | 0 | 0.0 | 2.6 | 0.00 | 0.02 | 0.00 | 54 | 1019.5 |
| 20260502071253 | 36 | 0 | 0.0 | 1.7 | 0.00 | 0.02 | 0.00 | 51 | 1019.3 |
| 20260502065218 | 36 | 0 | 0.0 | 1.7 | 0.00 | 0.02 | 0.00 | 51 | 1019.6 |
| 20260502064204 | 37 | 0 | 0.0 | 0.9 | 0.00 | 0.02 | 0.00 | 51 | 1019.6 |